Time;durP1;ratioP1;P1;durP2;ratioP2;P2;SDS_P1;SDS_P2;PMS_P1;PMS_P2;Temp;Humidity;BMP_temperature;BMP_pressure;BME280_temperature;BME280_humidity;BME280_pressure;Samples;Min_cycle;Max_cycle;Signal;HPM_P1;HPM_P2
2023/12/31 00:01:02;;;;;;;;;;;;;;;10.18;100.00;100124.91;5011060;28;19940;-46
2023/12/31 00:03:27;;;;;;;;;;;;;;;10.20;100.00;100126.38;5011213;28;19915;-45
2023/12/31 00:05:52;;;;;;;;;;;;;;;10.20;100.00;100112.91;5011258;28;20059;-46
2023/12/31 00:08:18;;;;;;;;;;;;;;;10.20;100.00;100107.53;5009323;28;19961;-47
2023/12/31 00:10:43;;;;;;;;;;;;;;;10.26;100.00;100105.91;5010726;28;19921;-46
2023/12/31 00:13:09;;;;;;;;;;;;;;;10.30;100.00;100107.22;5027119;28;19925;-46
2023/12/31 00:15:34;;;;;;;;;;;;;;;10.27;100.00;100100.38;5030353;28;19970;-46
2023/12/31 00:17:59;;;;;;;;;;;;;;;10.19;100.00;100105.88;5029330;28;19928;-48
2023/12/31 00:20:24;;;;;;;;;;;;;;;10.14;100.00;100108.34;5030083;27;19929;-47
2023/12/31 00:22:50;;;;;;;;;;;;;;;10.15;100.00;100072.34;5029916;28;19928;-45
2023/12/31 00:25:15;;;;;;;;;;;;;;;10.18;100.00;100104.22;5030173;28;19921;-47
2023/12/31 00:27:41;;;;;;;;;;;;;;;10.24;100.00;100078.38;5029881;28;19921;-45
2023/12/31 00:30:06;;;;;;;;;;;;;;;10.24;100.00;100076.56;5029940;27;19917;-46
2023/12/31 00:32:32;;;;;;;;;;;;;;;10.27;100.00;100073.50;5029617;28;20341;-45
2023/12/31 00:34:57;;;;;;;;;;;;;;;10.21;100.00;100058.09;5030723;28;20294;-45
2023/12/31 00:37:22;;;;;;;;;;;;;;;10.30;100.00;100051.56;5029410;28;19951;-45
2023/12/31 00:39:47;;;;;;;;;;;;;;;10.20;100.00;100044.88;5013198;28;20012;-47
2023/12/31 00:42:13;;;;;;;;;;;;;;;10.13;100.00;100046.69;5020011;28;19921;-46
2023/12/31 00:44:38;;;;;;;;;;;;;;;10.13;100.00;100039.44;5029907;28;19944;-46
2023/12/31 00:47:03;;;;;;;;;;;;;;;10.14;100.00;100041.13;5029635;28;19924;-46
2023/12/31 00:49:28;;;;;;;;;;;;;;;10.16;100.00;100022.09;5029606;28;19962;-46
2023/12/31 00:51:54;;;;;;;;;;;;;;;10.11;100.00;100022.69;5028769;28;19992;-47
2023/12/31 00:54:19;;;;;;;;;;;;;;;10.11;100.00;100015.47;5018224;28;20248;-46
2023/12/31 00:56:44;;;;;;;;;;;;;;;10.04;100.00;100005.69;5013399;28;19962;-48
2023/12/31 00:59:09;;;;;;;;;;;;;;;10.06;100.00;100009.84;5009662;28;19918;-46
2023/12/31 01:01:35;;;;;;;;;;;;;;;10.03;100.00;100009.41;5019287;28;19994;-45
2023/12/31 01:04:00;;;;;;;;;;;;;;;10.02;100.00;100000.50;5010862;28;19925;-45
2023/12/31 01:06:25;;;;;;;;;;;;;;;10.02;100.00;100022.00;5019262;28;19929;-45
2023/12/31 01:08:51;;;;;;;;;;;;;;;10.03;100.00;99998.63;5022659;28;19929;-47
2023/12/31 01:11:16;;;;;;;;;;;;;;;9.96;100.00;99987.88;5016716;28;19921;-46
2023/12/31 01:13:41;;;;;;;;;;;;;;;10.00;100.00;99996.34;5009943;28;19962;-45
2023/12/31 01:16:06;;;;;;;;;;;;;;;9.96;100.00;100004.00;5018485;28;19925;-45
2023/12/31 01:18:32;;;;;;;;;;;;;;;9.98;100.00;99995.72;5028138;28;20035;-45
2023/12/31 01:20:57;;;;;;;;;;;;;;;10.08;100.00;99985.44;5027502;28;19928;-48
2023/12/31 01:23:22;;;;;;;;;;;;;;;10.03;100.00;99978.00;5018661;28;19921;-46
2023/12/31 01:25:47;;;;;;;;;;;;;;;9.98;100.00;99971.53;5016972;28;19928;-45
2023/12/31 01:28:13;;;;;;;;;;;;;;;9.97;100.00;99961.81;5009981;28;19965;-47
2023/12/31 01:30:38;;;;;;;;;;;;;;;9.96;100.00;99944.03;5023584;28;19921;-46
2023/12/31 01:33:03;;;;;;;;;;;;;;;9.97;100.00;99916.13;5028654;28;19978;-45
2023/12/31 01:35:29;;;;;;;;;;;;;;;9.88;100.00;99916.28;5024967;28;19921;-47
2023/12/31 01:37:54;;;;;;;;;;;;;;;9.78;100.00;99921.22;5021634;28;19935;-46
2023/12/31 01:40:19;;;;;;;;;;;;;;;9.84;100.00;99908.81;5025508;28;20406;-47
2023/12/31 01:42:44;;;;;;;;;;;;;;;9.82;100.00;99917.09;5027440;28;20375;-47
2023/12/31 01:45:10;;;;;;;;;;;;;;;9.82;100.00;99922.47;5013498;28;20387;-46
2023/12/31 01:47:35;;;;;;;;;;;;;;;9.85;100.00;99914.00;5019527;28;20012;-46
2023/12/31 01:50:01;;;;;;;;;;;;;;;9.88;100.00;99905.53;5019834;28;19928;-47
2023/12/31 01:52:26;;;;;;;;;;;;;;;9.94;100.00;99911.16;5026844;28;19917;-47
2023/12/31 01:54:52;;;;;;;;;;;;;;;9.85;100.00;99897.06;5024373;27;19989;-47
2023/12/31 01:57:17;;;;;;;;;;;;;;;9.94;100.00;99898.53;5014026;28;19921;-46
2023/12/31 01:59:43;;;;;;;;;;;;;;;9.95;100.00;99889.44;5023916;28;19921;-47
2023/12/31 02:02:08;;;;;;;;;;;;;;;9.94;100.00;99881.59;5024337;28;19973;-46
2023/12/31 02:04:33;;;;;;;;;;;;;;;9.86;100.00;99880.72;5025516;28;19953;-46
2023/12/31 02:06:59;;;;;;;;;;;;;;;9.82;100.00;99881.31;5009161;28;20395;-46
2023/12/31 02:09:24;;;;;;;;;;;;;;;9.83;100.00;99886.50;5021240;28;19921;-46
2023/12/31 02:11:50;;;;;;;;;;;;;;;9.80;100.00;99860.03;5018757;28;20326;-46
2023/12/31 02:14:15;;;;;;;;;;;;;;;9.83;100.00;99853.44;5016446;28;20341;-46
2023/12/31 02:16:40;;;;;;;;;;;;;;;9.84;100.00;99849.69;5013592;28;20334;-46
2023/12/31 02:19:05;;;;;;;;;;;;;;;9.83;100.00;99848.88;5022172;28;19928;-46
2023/12/31 02:21:30;;;;;;;;;;;;;;;9.82;100.00;99859.81;5008229;28;19921;-46
2023/12/31 02:23:56;;;;;;;;;;;;;;;9.88;100.00;99843.72;5025705;28;20004;-46
2023/12/31 02:26:21;;;;;;;;;;;;;;;9.82;100.00;99831.13;5022918;28;19972;-46
2023/12/31 02:28:46;;;;;;;;;;;;;;;9.84;100.00;99829.03;5021510;28;19921;-47
2023/12/31 02:31:11;;;;;;;;;;;;;;;9.79;100.00;99809.16;5024143;28;19983;-47
2023/12/31 02:33:37;;;;;;;;;;;;;;;9.74;100.00;99823.22;5022168;28;19928;-46
2023/12/31 02:36:02;;;;;;;;;;;;;;;9.60;100.00;99822.34;5024825;28;19921;-46
2023/12/31 02:38:28;;;;;;;;;;;;;;;9.63;100.00;99807.66;5020076;28;19928;-47
2023/12/31 02:40:53;;;;;;;;;;;;;;;9.64;100.00;99809.34;5023275;28;20380;-48
2023/12/31 02:43:18;;;;;;;;;;;;;;;9.58;100.00;99796.69;5019507;28;19929;-47
2023/12/31 02:45:44;;;;;;;;;;;;;;;9.58;100.00;99797.53;5025281;28;19926;-46
2023/12/31 02:48:09;;;;;;;;;;;;;;;9.55;100.00;99794.41;5011910;28;19918;-45
2023/12/31 02:50:34;;;;;;;;;;;;;;;9.54;100.00;99790.91;5027696;28;20268;-47
2023/12/31 02:52:59;;;;;;;;;;;;;;;9.55;100.00;99786.34;5015837;28;19922;-49
2023/12/31 02:55:24;;;;;;;;;;;;;;;9.44;100.00;99772.47;5027095;28;19928;-44
2023/12/31 02:57:50;;;;;;;;;;;;;;;9.46;100.00;99758.84;5021982;28;19928;-47
2023/12/31 03:00:15;;;;;;;;;;;;;;;9.34;100.00;99757.78;5023649;28;20012;-46
2023/12/31 03:02:40;;;;;;;;;;;;;;;9.30;100.00;99761.91;5020135;28;20017;-46
2023/12/31 03:05:07;;;;;;;;;;;;;;;9.22;100.00;99754.84;5030434;28;19966;-47
2023/12/31 03:07:32;;;;;;;;;;;;;;;9.24;100.00;99739.34;5027886;28;19921;-46
2023/12/31 03:09:58;;;;;;;;;;;;;;;9.15;100.00;99735.19;5020442;28;19966;-47
2023/12/31 03:12:23;;;;;;;;;;;;;;;9.19;100.00;99733.78;5025732;28;19921;-48
2023/12/31 03:14:48;;;;;;;;;;;;;;;9.27;100.00;99722.00;5031203;28;19921;-46
2023/12/31 03:17:14;;;;;;;;;;;;;;;9.22;100.00;99717.25;5025124;28;19930;-47
2023/12/31 03:19:39;;;;;;;;;;;;;;;9.12;100.00;99720.31;5025831;28;19928;-46
2023/12/31 03:22:04;;;;;;;;;;;;;;;9.04;100.00;99709.75;5013645;28;20021;-46
2023/12/31 03:24:30;;;;;;;;;;;;;;;9.08;100.00;99702.94;5018583;28;20016;-45
2023/12/31 03:26:55;;;;;;;;;;;;;;;9.13;100.00;99695.09;5021838;28;20016;-47
2023/12/31 03:29:20;;;;;;;;;;;;;;;9.13;100.00;99688.91;5011293;28;19921;-46
2023/12/31 03:31:45;;;;;;;;;;;;;;;9.09;100.00;99671.56;5011027;28;20245;-46
2023/12/31 03:34:11;;;;;;;;;;;;;;;9.06;100.00;99669.25;5022313;28;19928;-47
2023/12/31 03:36:36;;;;;;;;;;;;;;;9.10;100.00;99657.13;5015151;28;19921;-46
2023/12/31 03:39:02;;;;;;;;;;;;;;;9.09;100.00;99658.16;5015970;28;19928;-46
2023/12/31 03:41:27;;;;;;;;;;;;;;;9.05;100.00;99663.06;5024678;28;20299;-47
2023/12/31 03:43:53;;;;;;;;;;;;;;;9.03;100.00;99654.44;5027618;28;19917;-48
2023/12/31 03:46:18;;;;;;;;;;;;;;;9.04;100.00;99641.81;5028601;28;20340;-48
2023/12/31 03:48:43;;;;;;;;;;;;;;;8.99;100.00;99651.28;5020808;28;20291;-48
2023/12/31 03:51:09;;;;;;;;;;;;;;;9.02;100.00;99640.16;5017524;28;20316;-46
2023/12/31 03:53:34;;;;;;;;;;;;;;;9.04;100.00;99621.19;5018621;28;20432;-46
2023/12/31 03:55:59;;;;;;;;;;;;;;;9.04;100.00;99623.88;5012861;28;19975;-47
2023/12/31 03:58:25;;;;;;;;;;;;;;;9.01;100.00;99614.34;5016785;28;19986;-47
2023/12/31 04:00:50;;;;;;;;;;;;;;;9.00;100.00;99607.34;5019725;28;20013;-47
2023/12/31 04:03:15;;;;;;;;;;;;;;;8.99;100.00;99597.63;5018940;28;20481;-46
2023/12/31 04:05:41;;;;;;;;;;;;;;;8.99;100.00;99578.00;5025221;28;19921;-46
2023/12/31 04:08:06;;;;;;;;;;;;;;;9.04;100.00;99575.56;5024804;28;19965;-46
2023/12/31 04:10:32;;;;;;;;;;;;;;;9.02;100.00;99546.22;5015783;28;19928;-46
2023/12/31 04:12:57;;;;;;;;;;;;;;;9.05;100.00;99549.53;5016822;28;20002;-46
2023/12/31 04:15:22;;;;;;;;;;;;;;;9.06;100.00;99560.09;5021104;28;19982;-46
2023/12/31 04:17:47;;;;;;;;;;;;;;;9.00;100.00;99564.41;5018556;28;19921;-46
2023/12/31 04:20:13;;;;;;;;;;;;;;;8.99;100.00;99541.28;5038325;27;20004;-46
2023/12/31 04:22:38;;;;;;;;;;;;;;;8.98;100.00;99536.94;5020480;28;20359;-46
2023/12/31 04:25:04;;;;;;;;;;;;;;;8.97;100.00;99535.28;5021074;28;19921;-46
2023/12/31 04:27:31;;;;;;;;;;;;;;;9.00;100.00;99521.47;5016511;28;19921;-46
2023/12/31 04:29:57;;;;;;;;;;;;;;;9.04;100.00;99515.69;5029364;28;20255;-46
2023/12/31 04:32:25;;;;;;;;;;;;;;;9.06;100.00;99505.56;5024591;28;19922;-46
2023/12/31 04:34:50;;;;;;;;;;;;;;;9.12;100.00;99507.44;5017462;28;19921;-47
2023/12/31 04:37:15;;;;;;;;;;;;;;;9.19;100.00;99503.72;5012830;28;19968;-47
2023/12/31 04:39:40;;;;;;;;;;;;;;;9.18;100.00;99495.88;5022569;28;20298;-47
2023/12/31 04:42:05;;;;;;;;;;;;;;;9.21;100.00;99506.19;5018333;28;20291;-46
2023/12/31 04:44:31;;;;;;;;;;;;;;;9.25;100.00;99485.97;5015307;28;20269;-44
2023/12/31 04:46:56;;;;;;;;;;;;;;;9.30;100.00;99472.75;5010667;28;19917;-46
2023/12/31 04:49:21;;;;;;;;;;;;;;;9.24;100.00;99481.63;5025942;28;19929;-46
2023/12/31 04:51:46;;;;;;;;;;;;;;;9.27;100.00;99462.44;5023099;28;19921;-45
2023/12/31 04:54:11;;;;;;;;;;;;;;;9.28;100.00;99457.88;5026637;28;20066;-46
2023/12/31 04:56:38;;;;;;;;;;;;;;;9.25;100.00;99461.81;5025733;28;19957;-47
2023/12/31 04:59:03;;;;;;;;;;;;;;;9.28;100.00;99436.41;5021334;28;19922;-46
2023/12/31 05:01:32;;;;;;;;;;;;;;;9.24;100.00;99452.09;5022749;28;19928;-46
2023/12/31 05:03:57;;;;;;;;;;;;;;;9.19;100.00;99454.59;5023210;28;20493;-46
2023/12/31 05:06:22;;;;;;;;;;;;;;;9.16;100.00;99460.34;5016969;28;19956;-46
2023/12/31 05:08:47;;;;;;;;;;;;;;;9.20;100.00;99434.75;5013312;28;19976;-46
2023/12/31 05:11:13;;;;;;;;;;;;;;;9.14;100.00;99447.16;5026800;27;20051;-47
2023/12/31 05:13:38;;;;;;;;;;;;;;;9.12;100.00;99421.56;5014612;28;19921;-46
2023/12/31 05:16:04;;;;;;;;;;;;;;;9.12;100.00;99424.22;5027559;28;19921;-46
2023/12/31 05:18:30;;;;;;;;;;;;;;;8.99;100.00;99414.31;5016268;28;19921;-47
2023/12/31 05:20:55;;;;;;;;;;;;;;;8.96;100.00;99426.28;5018580;28;20386;-46
2023/12/31 05:23:20;;;;;;;;;;;;;;;8.97;100.00;99419.06;5015464;28;20395;-47
2023/12/31 05:25:46;;;;;;;;;;;;;;;8.94;100.00;99398.84;5025809;28;19931;-46
2023/12/31 05:28:11;;;;;;;;;;;;;;;8.92;100.00;99408.13;5010776;28;19921;-47
2023/12/31 05:30:36;;;;;;;;;;;;;;;8.88;100.00;99397.00;5018252;28;20395;-46
2023/12/31 05:33:01;;;;;;;;;;;;;;;8.89;100.00;99387.91;5015852;28;20431;-46
2023/12/31 05:35:27;;;;;;;;;;;;;;;8.83;100.00;99398.66;5009571;28;19964;-46
2023/12/31 05:37:52;;;;;;;;;;;;;;;8.86;100.00;99382.94;5007776;28;19974;-46
2023/12/31 05:40:18;;;;;;;;;;;;;;;8.87;100.00;99397.19;5017959;28;19928;-45
2023/12/31 05:42:43;;;;;;;;;;;;;;;8.86;100.00;99382.13;5020393;28;19925;-46
2023/12/31 05:45:08;;;;;;;;;;;;;;;8.86;100.00;99379.44;5014172;28;20333;-48
2023/12/31 05:47:34;;;;;;;;;;;;;;;8.86;100.00;99374.09;5007557;28;19922;-44
2023/12/31 05:49:59;;;;;;;;;;;;;;;8.88;100.00;99383.56;5015579;28;19940;-46
2023/12/31 05:52:24;;;;;;;;;;;;;;;8.85;100.00;99367.91;5019744;28;19928;-47
2023/12/31 05:54:49;;;;;;;;;;;;;;;8.92;100.00;99379.44;5014170;28;19925;-46
2023/12/31 05:57:15;;;;;;;;;;;;;;;8.89;100.00;99354.88;5014279;28;20027;-46
2023/12/31 05:59:40;;;;;;;;;;;;;;;8.91;100.00;99352.81;5023848;28;19932;-46
2023/12/31 06:02:07;;;;;;;;;;;;;;;8.95;100.00;99351.34;5017937;28;19925;-46
2023/12/31 06:04:32;;;;;;;;;;;;;;;8.95;100.00;99335.25;5014915;28;19921;-45
2023/12/31 06:06:57;;;;;;;;;;;;;;;9.00;100.00;99338.16;5008908;28;19978;-46
2023/12/31 06:09:22;;;;;;;;;;;;;;;9.03;100.00;99337.75;5018139;28;19926;-48
2023/12/31 06:11:48;;;;;;;;;;;;;;;8.98;100.00;99338.38;5010145;28;20249;-48
2023/12/31 06:14:13;;;;;;;;;;;;;;;9.05;100.00;99324.09;5017738;28;20024;-47
2023/12/31 06:16:38;;;;;;;;;;;;;;;8.99;100.00;99331.13;5027469;28;20024;-47
2023/12/31 06:19:04;;;;;;;;;;;;;;;9.01;100.00;99316.47;5017054;28;20059;-45
2023/12/31 06:21:29;;;;;;;;;;;;;;;9.00;100.00;99322.91;5019021;28;19926;-46
2023/12/31 06:23:54;;;;;;;;;;;;;;;9.07;100.00;99303.25;5018268;28;20173;-46
2023/12/31 06:26:19;;;;;;;;;;;;;;;9.12;100.00;99306.16;5023449;28;19925;-45
2023/12/31 06:28:44;;;;;;;;;;;;;;;9.11;100.00;99307.16;5013930;28;19929;-48
2023/12/31 06:31:10;;;;;;;;;;;;;;;9.13;100.00;99289.00;5020281;28;19944;-46
2023/12/31 06:33:35;;;;;;;;;;;;;;;9.12;100.00;99292.72;5017535;28;19925;-49
2023/12/31 06:36:00;;;;;;;;;;;;;;;9.15;100.00;99287.75;5027668;27;19921;-46
2023/12/31 06:38:25;;;;;;;;;;;;;;;9.17;100.00;99284.88;5033025;27;19932;-50
2023/12/31 06:40:51;;;;;;;;;;;;;;;9.16;100.00;99267.09;5027600;28;20401;-46
2023/12/31 06:43:16;;;;;;;;;;;;;;;9.13;100.00;99280.94;5024912;28;19976;-45
2023/12/31 06:45:41;;;;;;;;;;;;;;;9.06;100.00;99278.28;5026146;28;19932;-47
2023/12/31 06:48:06;;;;;;;;;;;;;;;8.94;100.00;99266.53;5015141;28;19925;-47
2023/12/31 06:50:33;;;;;;;;;;;;;;;8.83;100.00;99278.75;5028878;28;20469;-46
2023/12/31 06:52:58;;;;;;;;;;;;;;;8.79;100.00;99264.09;5021683;28;19948;-47
2023/12/31 06:55:24;;;;;;;;;;;;;;;8.77;100.00;99276.91;5041447;28;20379;-46
2023/12/31 06:57:49;;;;;;;;;;;;;;;8.73;100.00;99279.16;5029909;28;20334;-47
2023/12/31 07:00:14;;;;;;;;;;;;;;;8.73;100.00;99279.16;5015302;28;19928;-46
2023/12/31 07:02:39;;;;;;;;;;;;;;;8.69;100.00;99282.47;5010972;28;19929;-46
2023/12/31 07:05:05;;;;;;;;;;;;;;;8.59;100.00;99274.84;5029618;28;19935;-50
2023/12/31 07:07:30;;;;;;;;;;;;;;;8.57;100.00;99263.50;5025533;28;20390;-48
2023/12/31 07:09:55;;;;;;;;;;;;;;;8.53;100.00;99257.75;5012268;28;20008;-44
2023/12/31 07:12:20;;;;;;;;;;;;;;;8.52;100.00;99253.41;5024831;27;19929;-43
2023/12/31 07:14:46;;;;;;;;;;;;;;;8.57;100.00;99253.59;5050389;27;20028;-47
2023/12/31 07:17:11;;;;;;;;;;;;;;;8.56;100.00;99254.63;5065146;27;20277;-46
2023/12/31 07:19:37;;;;;;;;;;;;;;;8.59;100.00;99250.72;5082535;27;20391;-47
2023/12/31 07:22:03;;;;;;;;;;;;;;;8.55;100.00;99244.94;5050594;27;19997;-46
2023/12/31 07:24:28;;;;;;;;;;;;;;;8.62;100.00;99250.28;5077953;27;20012;-44
2023/12/31 07:26:53;;;;;;;;;;;;;;;8.62;100.00;99244.94;5058615;27;19930;-44
2023/12/31 07:29:18;;;;;;;;;;;;;;;8.59;100.00;99248.03;5048280;27;19923;-44
2023/12/31 07:31:45;;;;;;;;;;;;;;;8.51;100.00;99251.75;5028229;27;19924;-47
2023/12/31 07:34:10;;;;;;;;;;;;;;;8.55;100.00;99250.28;5083463;27;19922;-44
2023/12/31 07:36:36;;;;;;;;;;;;;;;8.53;100.00;99236.28;5038949;27;19929;-48
2023/12/31 07:39:01;;;;;;;;;;;;;;;8.55;100.00;99242.25;5053006;27;19929;-45
2023/12/31 07:41:26;;;;;;;;;;;;;;;8.48;100.00;99232.59;5037458;27;19917;-45
2023/12/31 07:43:51;;;;;;;;;;;;;;;8.47;100.00;99244.31;5062284;27;19925;-47
2023/12/31 07:46:17;;;;;;;;;;;;;;;8.45;100.00;99244.56;5029751;27;19932;-45
2023/12/31 07:48:42;;;;;;;;;;;;;;;8.50;100.00;99241.22;5052399;27;20023;-48
2023/12/31 07:51:09;;;;;;;;;;;;;;;8.44;100.00;99245.56;5095030;27;19956;-46
2023/12/31 07:53:34;;;;;;;;;;;;;;;8.42;100.00;99238.75;5102731;27;20357;-45
2023/12/31 07:55:59;;;;;;;;;;;;;;;8.46;100.00;99246.19;5052668;27;19928;-45
2023/12/31 07:58:27;;;;;;;;;;;;;;;8.46;100.00;99240.00;5027695;27;19928;-47
2023/12/31 08:00:52;;;;;;;;;;;;;;;8.45;100.00;99249.06;5048236;27;20011;-47
2023/12/31 08:03:18;;;;;;;;;;;;;;;8.47;100.00;99247.81;5071632;27;20294;-46
2023/12/31 08:05:43;;;;;;;;;;;;;;;8.57;100.00;99250.91;5046538;27;19925;-48
2023/12/31 08:08:11;;;;;;;;;;;;;;;8.64;100.00;99242.88;5029939;27;19928;-48
2023/12/31 08:10:37;;;;;;;;;;;;;;;8.67;100.00;99241.63;5047585;27;20096;-45
2023/12/31 08:13:02;;;;;;;;;;;;;;;8.70;100.00;99247.41;5026755;27;20334;-45
2023/12/31 08:15:27;;;;;;;;;;;;;;;8.74;100.00;99242.44;5028738;28;19917;-45
2023/12/31 08:17:53;;;;;;;;;;;;;;;8.79;100.00;99242.63;5028061;28;19925;-46
2023/12/31 08:20:18;;;;;;;;;;;;;;;8.79;100.00;99242.63;5020507;28;19921;-45
2023/12/31 08:22:43;;;;;;;;;;;;;;;8.78;100.00;99251.72;5027001;28;20332;-47
2023/12/31 08:25:08;;;;;;;;;;;;;;;8.63;100.00;99237.72;5026201;28;20024;-46
2023/12/31 08:27:33;;;;;;;;;;;;;;;8.57;100.00;99237.50;5008960;28;19969;-45
2023/12/31 08:29:59;;;;;;;;;;;;;;;8.57;100.00;99242.88;5011714;28;20015;-44
2023/12/31 08:32:26;;;;;;;;;;;;;;;8.53;100.00;99238.13;5046431;27;20012;-48
2023/12/31 08:34:52;;;;;;;;;;;;;;;8.53;100.00;99236.28;5025072;28;19993;-47
2023/12/31 08:37:17;;;;;;;;;;;;;;;8.46;100.00;99235.47;5024868;28;19921;-45
2023/12/31 08:39:42;;;;;;;;;;;;;;;8.39;100.00;99233.78;5027819;27;20020;-48
2023/12/31 08:42:08;;;;;;;;;;;;;;;8.35;100.00;99236.88;5036323;27;20388;-48
2023/12/31 08:44:33;;;;;;;;;;;;;;;8.32;100.00;99225.72;5018658;28;20343;-47
2023/12/31 08:46:58;;;;;;;;;;;;;;;8.33;100.00;99240.81;5018990;28;20016;-46
2023/12/31 08:49:26;;;;;;;;;;;;;;;8.27;100.00;99237.09;5016424;28;19965;-47
2023/12/31 08:51:51;;;;;;;;;;;;;;;8.24;100.00;99240.19;5009719;28;20435;-48
2023/12/31 08:54:16;;;;;;;;;;;;;;;8.27;100.00;99247.00;5020121;28;20011;-47
2023/12/31 08:56:41;;;;;;;;;;;;;;;8.26;100.00;99243.47;5012371;28;19921;-46
2023/12/31 08:59:07;;;;;;;;;;;;;;;8.26;100.00;99256.88;5029079;28;19942;-46
2023/12/31 09:01:32;;;;;;;;;;;;;;;8.27;100.00;99242.47;5026064;28;19925;-46
2023/12/31 09:03:58;;;;;;;;;;;;;;;8.26;100.00;99266.78;5028635;28;19917;-47
2023/12/31 09:06:23;;;;;;;;;;;;;;;8.25;100.00;99257.09;5028472;27;19921;-46
2023/12/31 09:08:48;;;;;;;;;;;;;;;8.24;100.00;99263.47;5030777;28;19944;-47
2023/12/31 09:11:16;;;;;;;;;;;;;;;8.23;100.00;99254.59;5015274;28;21463;-45
2023/12/31 09:13:42;;;;;;;;;;;;;;;8.28;100.00;99254.00;5012103;28;20004;-45
2023/12/31 09:16:07;;;;;;;;;;;;;;;8.26;100.00;99250.69;5011345;28;20020;-45
2023/12/31 09:18:32;;;;;;;;;;;;;;;8.30;100.00;99251.94;5025542;28;20021;-43
2023/12/31 09:20:57;;;;;;;;;;;;;;;8.31;100.00;99254.41;5025337;28;20401;-45
2023/12/31 09:23:23;;;;;;;;;;;;;;;8.38;100.00;99257.09;5026971;28;20469;-44
2023/12/31 09:25:48;;;;;;;;;;;;;;;8.41;100.00;99251.34;5025183;28;20414;-46
2023/12/31 09:28:13;;;;;;;;;;;;;;;8.48;100.00;99251.34;5025340;28;20406;-44
2023/12/31 09:30:38;;;;;;;;;;;;;;;8.49;100.00;99256.50;5014098;28;19921;-45
2023/12/31 09:33:03;;;;;;;;;;;;;;;8.53;100.00;99257.75;5009410;28;19926;-45
2023/12/31 09:35:29;;;;;;;;;;;;;;;8.56;100.00;99248.47;5007933;28;19924;-45
2023/12/31 09:37:54;;;;;;;;;;;;;;;8.56;100.00;99241.22;5007557;28;19944;-48
2023/12/31 09:40:19;;;;;;;;;;;;;;;8.61;100.00;99231.72;5011014;28;20320;-45
2023/12/31 09:42:48;;;;;;;;;;;;;;;8.63;100.00;99238.53;5013911;28;20465;-44
2023/12/31 09:45:14;;;;;;;;;;;;;;;8.68;100.00;99248.63;5006931;28;19970;-44
2023/12/31 09:47:39;;;;;;;;;;;;;;;8.75;100.00;99236.03;5025292;28;20391;-46
2023/12/31 09:50:07;;;;;;;;;;;;;;;8.81;100.00;99243.25;5026808;28;19921;-46
2023/12/31 09:52:32;;;;;;;;;;;;;;;8.77;100.00;99237.50;5009803;28;19973;-45
2023/12/31 09:54:57;;;;;;;;;;;;;;;8.76;100.00;99224.28;5008864;28;20291;-45
2023/12/31 09:57:23;;;;;;;;;;;;;;;8.81;100.00;99231.69;5011173;28;20012;-46
2023/12/31 09:59:49;;;;;;;;;;;;;;;8.79;100.00;99239.94;5022184;28;19964;-45
2023/12/31 10:02:18;;;;;;;;;;;;;;;8.75;100.00;99233.38;5047895;27;19930;-45
2023/12/31 10:04:43;;;;;;;;;;;;;;;8.85;100.00;99241.00;5010906;28;19975;-45
2023/12/31 10:07:09;;;;;;;;;;;;;;;8.82;100.00;99236.88;5010348;28;20422;-45
2023/12/31 10:09:34;;;;;;;;;;;;;;;8.76;100.00;99229.63;5010370;28;19952;-46
2023/12/31 10:12:00;;;;;;;;;;;;;;;8.76;100.00;99224.28;5017442;28;20030;-45
2023/12/31 10:14:26;;;;;;;;;;;;;;;8.76;100.00;99235.00;5015458;28;19942;-46
2023/12/31 10:16:51;;;;;;;;;;;;;;;8.71;100.00;99240.16;5010679;28;19925;-45
2023/12/31 10:19:17;;;;;;;;;;;;;;;8.66;100.00;99242.66;5017623;28;19921;-46
2023/12/31 10:21:42;;;;;;;;;;;;;;;8.53;100.00;99249.69;5017530;27;20695;-45
2023/12/31 10:24:08;;;;;;;;;;;;;;;8.38;100.00;99251.72;5047421;27;19994;-45
2023/12/31 10:26:33;;;;;;;;;;;;;;;8.18;100.00;99269.66;5029927;28;19921;-56
2023/12/31 10:28:58;;;;;;;;;;;;;;;8.07;100.00;99279.94;5025784;28;20417;-54
2023/12/31 10:31:27;;;;;;;;;;;;;;;7.95;100.00;99286.91;5021893;28;19974;-54
2023/12/31 10:33:53;;;;;;;;;;;;;;;7.94;100.00;99292.50;5019975;28;20352;-49
2023/12/31 10:36:22;;;;;;;;;;;;;;;7.95;100.00;99297.63;5015863;28;19961;-46
2023/12/31 10:38:48;;;;;;;;;;;;;;;7.95;100.00;99299.50;5020603;28;19925;-45
2023/12/31 10:41:17;;;;;;;;;;;;;;;7.95;100.00;99296.81;5019959;28;19918;-48
2023/12/31 10:43:46;;;;;;;;;;;;;;;7.89;100.00;99303.81;5017255;28;20423;-46
2023/12/31 10:46:13;;;;;;;;;;;;;;;7.89;100.00;99331.41;5021023;28;19925;-51
2023/12/31 10:48:38;;;;;;;;;;;;;;;7.87;100.00;99328.16;5023242;27;21368;-54
2023/12/31 10:51:04;;;;;;;;;;;;;;;7.81;100.00;99346.84;5075094;27;20383;-45
2023/12/31 10:53:30;;;;;;;;;;;;;;;7.76;100.00;99333.25;5064873;27;21164;-50
2023/12/31 10:55:55;;;;;;;;;;;;;;;7.74;100.00;99333.47;5081007;27;19919;-53
2023/12/31 10:58:20;;;;;;;;;;;;;;;7.61;100.00;99322.66;5062225;27;19932;-50
2023/12/31 11:00:46;;;;;;;;;;;;;;;7.61;100.00;99334.22;5033738;27;19932;-47
2023/12/31 11:03:13;;;;;;;;;;;;;;;7.51;100.00;99349.00;5096844;27;19921;-47
2023/12/31 11:05:38;;;;;;;;;;;;;;;7.51;100.00;99355.19;5041452;28;19917;-45
2023/12/31 11:08:04;;;;;;;;;;;;;;;7.48;100.00;99352.91;5084335;27;19934;-46
2023/12/31 11:10:29;;;;;;;;;;;;;;;7.40;100.00;99345.03;5090200;27;19925;-46
2023/12/31 11:12:54;;;;;;;;;;;;;;;7.41;100.00;99339.47;5047607;27;19964;-47
2023/12/31 11:15:20;;;;;;;;;;;;;;;7.49;100.00;99333.13;5065054;27;19975;-44
2023/12/31 11:17:57;;;;;;;;;;;;;;;7.47;100.00;99324.47;5057164;27;19968;-44
2023/12/31 11:20:41;;;;;;;;;;;;;;;7.54;100.00;99328.00;5084936;27;19924;-44
2023/12/31 11:23:25;;;;;;;;;;;;;;;7.61;100.00;99328.03;5088104;27;20421;-44
2023/12/31 11:25:50;;;;;;;;;;;;;;;7.63;100.00;99332.16;5075903;27;19924;-45
2023/12/31 11:28:17;;;;;;;;;;;;;;;7.63;100.00;99326.78;5062742;27;20262;-44
2023/12/31 11:30:46;;;;;;;;;;;;;;;7.64;100.00;99336.50;5086450;27;20316;-44
2023/12/31 11:33:12;;;;;;;;;;;;;;;7.72;100.00;99345.41;5056610;27;20030;-46
2023/12/31 11:35:40;;;;;;;;;;;;;;;7.73;100.00;99326.44;5088044;27;19960;-44
2023/12/31 11:38:05;;;;;;;;;;;;;;;7.76;100.00;99349.31;5041992;27;20371;-44
2023/12/31 11:40:30;;;;;;;;;;;;;;;7.73;100.00;99331.78;5024571;28;19925;-43
2023/12/31 11:42:56;;;;;;;;;;;;;;;7.75;100.00;99311.00;5075355;27;19976;-44
2023/12/31 11:45:59;;;;;;;;;;;;;;;7.75;100.00;99312.84;5048766;27;19919;-43
2023/12/31 11:48:25;;;;;;;;;;;;;;;7.84;100.00;99309.78;5054016;28;20427;-45
2023/12/31 11:50:51;;;;;;;;;;;;;;;7.94;100.00;99300.53;5049665;28;19917;-48
2023/12/31 11:53:16;;;;;;;;;;;;;;;7.99;100.00;99308.78;5078491;27;19934;-46
2023/12/31 11:55:44;;;;;;;;;;;;;;;8.06;100.00;99304.28;5064413;27;19921;-45
2023/12/31 11:58:10;;;;;;;;;;;;;;;8.10;100.00;99311.69;5084338;27;20303;-44
2023/12/31 12:00:35;;;;;;;;;;;;;;;8.19;100.00;99288.22;5042219;27;19925;-45
2023/12/31 12:03:03;;;;;;;;;;;;;;;8.24;100.00;99290.25;5073471;27;20321;-45
2023/12/31 12:05:28;;;;;;;;;;;;;;;8.24;100.00;99275.03;5038269;27;20367;-46
2023/12/31 12:07:54;;;;;;;;;;;;;;;8.32;100.00;99264.09;5042184;27;19941;-45
2023/12/31 12:10:19;;;;;;;;;;;;;;;8.48;100.00;99281.66;5040326;27;19925;-47
2023/12/31 12:12:45;;;;;;;;;;;;;;;8.67;100.00;99274.63;5029160;27;20321;-45
2023/12/31 12:15:10;;;;;;;;;;;;;;;8.78;100.00;99281.22;5088710;27;19920;-48
2023/12/31 12:17:36;;;;;;;;;;;;;;;8.83;100.00;99280.59;5047808;27;19920;-45
2023/12/31 12:20:01;;;;;;;;;;;;;;;8.88;100.00;99244.06;5071959;27;19947;-44
2023/12/31 12:22:26;;;;;;;;;;;;;;;8.95;100.00;99268.19;5061366;27;19923;-46
2023/12/31 12:24:51;;;;;;;;;;;;;;;8.79;100.00;99262.25;5046626;27;20290;-46
2023/12/31 12:27:17;;;;;;;;;;;;;;;8.67;100.00;99263.09;5026500;28;20444;-45
2023/12/31 12:29:42;;;;;;;;;;;;;;;8.60;100.00;99273.00;5020745;28;19928;-46
2023/12/31 12:32:07;;;;;;;;;;;;;;;8.49;100.00;99261.84;5010102;28;19977;-48
2023/12/31 12:34:32;;;;;;;;;;;;;;;8.42;100.00;99270.94;5007784;28;20008;-46
2023/12/31 12:36:59;;;;;;;;;;;;;;;8.38;100.00;99254.41;5016218;28;20067;-45